Terminal Aerodrome Forecast
Issued by NWS Pocatello, ID

Home | Current Version | Previous Version | Text Only | Print | Product List | Glossary On
Versions: 1 2 3 4 5 6 7 8 9 10 11 12 13 14
284
FTUS45 KPIH 221831 AAA
TAFBYI
TAF AMD
KBYI 221831Z 2219/2318 14012KT P6SM -SHRA VCTS SCT030CB OVC060
      TEMPO 2222/2302 -TSRA BKN030CB OVC050
     FM230200 35006KT P6SM VCSH BKN025 BKN080
     FM230800 28008KT P6SM VCSH SCT025 OVC050=

USA.gov is the U.S. government's official web portal to all federal, state and local government web resources and services.